CheckWX is a tool to help pilots better visualize weather data.  It is not intended as a substitute for an official pre-flight weather briefing.

15:05:33 UTC

2G4 METAR
Garrett County Airport
Oakland, Maryland, USA
Current

11 mins ago

K2G4 211455Z AUTO 27005KT 10SM SCT018 SCT026 25/22 A3009 RMK AO1
Observed
Jul-21 @ 14:55 UTC
Wind
  • 270° at 5 KTS
Visibility
10 SM
Flight Rules
VFR
Cloud Levels
  • Scattered at 1,800' AGL
  • Scattered at 2,600' AGL
Temperature
25°C / 77°F
Dewpoint
22°C / 72°F
Humidity
83%
Altimeter
30.09" Hg
Pressure
1018.92 hPa
Previous

51 mins ago

K2G4 211415Z AUTO 31007KT 262V342 10SM BKN012 BKN025 24/22 A3009 RMK AO1
Observed
Jul-21 @ 14:15 UTC
Wind
  • 310° at 7 KTS
Visibility
10 SM
Flight Rules
MVFR
Cloud Levels
  • Broken at 1,200' AGL
  • Broken at 2,500' AGL
Temperature
24°C / 75°F
Dewpoint
22°C / 72°F
Humidity
89%
Altimeter
30.09" Hg
Pressure
1018.92 hPa
Previous

1 hour ago

K2G4 211355Z AUTO 29006KT 10SM SCT010 SCT019 23/22 A3009 RMK AO1
Observed
Jul-21 @ 13:55 UTC
Wind
  • 290° at 6 KTS
Visibility
10 SM
Flight Rules
VFR
Cloud Levels
  • Scattered at 1,000' AGL
  • Scattered at 1,900' AGL
Temperature
23°C / 73°F
Dewpoint
22°C / 72°F
Humidity
94%
Altimeter
30.09" Hg
Pressure
1018.92 hPa